sensor_id;sensor_type;location;lat;lon;timestamp;P1;durP1;ratioP1;P2;durP2;ratioP2
30948;SDS011;17637;51.984;21.208;2023-01-01T00:01:43;13.20;;;10.05;;
30948;SDS011;17637;51.984;21.208;2023-01-01T00:04:15;15.68;;;10.73;;
30948;SDS011;17637;51.984;21.208;2023-01-01T00:06:47;14.40;;;10.93;;
30948;SDS011;17637;51.984;21.208;2023-01-01T00:09:22;15.93;;;10.75;;
30948;SDS011;17637;51.984;21.208;2023-01-01T00:12:13;13.65;;;9.27;;
30948;SDS011;17637;51.984;21.208;2023-01-01T00:14:45;15.25;;;8.65;;
30948;SDS011;17637;51.984;21.208;2023-01-01T00:17:16;11.00;;;8.13;;
30948;SDS011;17637;51.984;21.208;2023-01-01T00:19:48;12.07;;;8.48;;
30948;SDS011;17637;51.984;21.208;2023-01-01T00:22:20;11.93;;;8.38;;
30948;SDS011;17637;51.984;21.208;2023-01-01T00:25:12;11.30;;;8.23;;
30948;SDS011;17637;51.984;21.208;2023-01-01T00:27:45;14.48;;;7.82;;
30948;SDS011;17637;51.984;21.208;2023-01-01T00:30:17;9.82;;;7.10;;
30948;SDS011;17637;51.984;21.208;2023-01-01T00:32:49;9.82;;;6.38;;
30948;SDS011;17637;51.984;21.208;2023-01-01T00:35:26;11.23;;;6.53;;
30948;SDS011;17637;51.984;21.208;2023-01-01T00:37:58;9.35;;;7.50;;
30948;SDS011;17637;51.984;21.208;2023-01-01T00:40:30;10.35;;;6.80;;
30948;SDS011;17637;51.984;21.208;2023-01-01T00:43:02;9.23;;;6.88;;
30948;SDS011;17637;51.984;21.208;2023-01-01T00:45:34;11.23;;;7.32;;
30948;SDS011;17637;51.984;21.208;2023-01-01T00:48:06;9.25;;;6.40;;
30948;SDS011;17637;51.984;21.208;2023-01-01T00:50:38;9.90;;;7.03;;
30948;SDS011;17637;51.984;21.208;2023-01-01T00:53:10;9.98;;;7.35;;
30948;SDS011;17637;51.984;21.208;2023-01-01T00:55:42;10.27;;;7.07;;
30948;SDS011;17637;51.984;21.208;2023-01-01T00:58:17;12.88;;;7.57;;
30948;SDS011;17637;51.984;21.208;2023-01-01T01:00:50;9.18;;;6.78;;
30948;SDS011;17637;51.984;21.208;2023-01-01T01:03:23;11.48;;;7.65;;
30948;SDS011;17637;51.984;21.208;2023-01-01T01:08:33;13.60;;;7.97;;
30948;SDS011;17637;51.984;21.208;2023-01-01T01:11:09;12.15;;;7.55;;
30948;SDS011;17637;51.984;21.208;2023-01-01T01:13:45;9.75;;;6.82;;
30948;SDS011;17637;51.984;21.208;2023-01-01T01:18:59;10.02;;;7.13;;
30948;SDS011;17637;51.984;21.208;2023-01-01T01:21:33;10.63;;;7.45;;
30948;SDS011;17637;51.984;21.208;2023-01-01T01:24:05;9.98;;;7.15;;
30948;SDS011;17637;51.984;21.208;2023-01-01T01:26:38;9.73;;;6.90;;
30948;SDS011;17637;51.984;21.208;2023-01-01T01:29:10;11.85;;;8.00;;
30948;SDS011;17637;51.984;21.208;2023-01-01T01:31:42;11.65;;;7.88;;
30948;SDS011;17637;51.984;21.208;2023-01-01T01:34:13;10.25;;;7.38;;
30948;SDS011;17637;51.984;21.208;2023-01-01T01:36:54;12.18;;;7.05;;
30948;SDS011;17637;51.984;21.208;2023-01-01T01:39:26;10.65;;;6.82;;
30948;SDS011;17637;51.984;21.208;2023-01-01T01:41:59;10.23;;;7.25;;
30948;SDS011;17637;51.984;21.208;2023-01-01T01:47:21;9.75;;;7.22;;
30948;SDS011;17637;51.984;21.208;2023-01-01T01:49:56;9.88;;;6.90;;
30948;SDS011;17637;51.984;21.208;2023-01-01T01:52:36;10.43;;;7.20;;
30948;SDS011;17637;51.984;21.208;2023-01-01T01:55:10;11.00;;;7.88;;
30948;SDS011;17637;51.984;21.208;2023-01-01T01:57:44;12.00;;;7.75;;
30948;SDS011;17637;51.984;21.208;2023-01-01T02:00:16;10.40;;;7.45;;
30948;SDS011;17637;51.984;21.208;2023-01-01T02:02:55;9.98;;;6.90;;
30948;SDS011;17637;51.984;21.208;2023-01-01T02:05:33;11.05;;;7.28;;
30948;SDS011;17637;51.984;21.208;2023-01-01T02:08:06;10.20;;;7.07;;
30948;SDS011;17637;51.984;21.208;2023-01-01T02:10:39;10.88;;;7.07;;
30948;SDS011;17637;51.984;21.208;2023-01-01T02:13:11;10.40;;;7.57;;
30948;SDS011;17637;51.984;21.208;2023-01-01T02:18:24;11.15;;;7.13;;
30948;SDS011;17637;51.984;21.208;2023-01-01T02:21:12;11.15;;;7.25;;
30948;SDS011;17637;51.984;21.208;2023-01-01T02:30:08;9.88;;;6.88;;
30948;SDS011;17637;51.984;21.208;2023-01-01T02:32:44;10.82;;;7.15;;
30948;SDS011;17637;51.984;21.208;2023-01-01T02:35:22;10.98;;;7.22;;
30948;SDS011;17637;51.984;21.208;2023-01-01T02:40:57;8.60;;;6.72;;
30948;SDS011;17637;51.984;21.208;2023-01-01T02:43:32;11.27;;;7.10;;
30948;SDS011;17637;51.984;21.208;2023-01-01T02:46:04;12.02;;;7.28;;
30948;SDS011;17637;51.984;21.208;2023-01-01T02:54:07;10.35;;;7.10;;
30948;SDS011;17637;51.984;21.208;2023-01-01T02:59:25;11.00;;;6.82;;
30948;SDS011;17637;51.984;21.208;2023-01-01T03:08:06;9.05;;;6.85;;
30948;SDS011;17637;51.984;21.208;2023-01-01T03:13:32;9.02;;;6.40;;
30948;SDS011;17637;51.984;21.208;2023-01-01T03:19:06;10.13;;;5.88;;
30948;SDS011;17637;51.984;21.208;2023-01-01T03:24:25;10.38;;;6.28;;
30948;SDS011;17637;51.984;21.208;2023-01-01T03:27:37;10.63;;;5.82;;
30948;SDS011;17637;51.984;21.208;2023-01-01T03:30:08;8.20;;;6.10;;
30948;SDS011;17637;51.984;21.208;2023-01-01T03:32:44;7.45;;;5.28;;
30948;SDS011;17637;51.984;21.208;2023-01-01T03:35:52;7.55;;;5.70;;
30948;SDS011;17637;51.984;21.208;2023-01-01T03:41:11;7.72;;;5.80;;
30948;SDS011;17637;51.984;21.208;2023-01-01T03:46:35;8.57;;;5.60;;
30948;SDS011;17637;51.984;21.208;2023-01-01T03:49:09;7.32;;;4.93;;
30948;SDS011;17637;51.984;21.208;2023-01-01T03:51:53;9.48;;;5.90;;
30948;SDS011;17637;51.984;21.208;2023-01-01T03:57:09;6.93;;;5.13;;
30948;SDS011;17637;51.984;21.208;2023-01-01T03:59:52;6.22;;;4.57;;
30948;SDS011;17637;51.984;21.208;2023-01-01T04:02:37;7.63;;;5.13;;
30948;SDS011;17637;51.984;21.208;2023-01-01T04:05:13;7.55;;;5.15;;
30948;SDS011;17637;51.984;21.208;2023-01-01T04:07:47;6.10;;;4.60;;
30948;SDS011;17637;51.984;21.208;2023-01-01T04:10:19;6.53;;;4.72;;
30948;SDS011;17637;51.984;21.208;2023-01-01T04:12:54;8.10;;;5.43;;
30948;SDS011;17637;51.984;21.208;2023-01-01T04:15:27;7.28;;;5.10;;
30948;SDS011;17637;51.984;21.208;2023-01-01T04:17:59;6.28;;;5.13;;
30948;SDS011;17637;51.984;21.208;2023-01-01T04:20:31;6.53;;;4.93;;
30948;SDS011;17637;51.984;21.208;2023-01-01T04:23:03;7.10;;;4.70;;
30948;SDS011;17637;51.984;21.208;2023-01-01T04:25:35;6.65;;;4.82;;
30948;SDS011;17637;51.984;21.208;2023-01-01T04:28:07;7.03;;;5.00;;
30948;SDS011;17637;51.984;21.208;2023-01-01T04:30:39;6.53;;;4.32;;
30948;SDS011;17637;51.984;21.208;2023-01-01T04:33:10;7.93;;;5.03;;
30948;SDS011;17637;51.984;21.208;2023-01-01T04:35:42;6.40;;;4.60;;
30948;SDS011;17637;51.984;21.208;2023-01-01T04:38:14;8.13;;;4.53;;
30948;SDS011;17637;51.984;21.208;2023-01-01T04:40:55;5.57;;;3.80;;
30948;SDS011;17637;51.984;21.208;2023-01-01T04:43:29;7.47;;;4.43;;
30948;SDS011;17637;51.984;21.208;2023-01-01T04:46:02;5.65;;;3.72;;
30948;SDS011;17637;51.984;21.208;2023-01-01T04:48:35;6.70;;;3.80;;
30948;SDS011;17637;51.984;21.208;2023-01-01T04:51:08;5.43;;;3.83;;
30948;SDS011;17637;51.984;21.208;2023-01-01T04:53:41;7.25;;;4.15;;
30948;SDS011;17637;51.984;21.208;2023-01-01T04:56:15;6.90;;;4.00;;
30948;SDS011;17637;51.984;21.208;2023-01-01T04:58:49;5.15;;;3.75;;
30948;SDS011;17637;51.984;21.208;2023-01-01T05:01:22;6.05;;;4.15;;
30948;SDS011;17637;51.984;21.208;2023-01-01T05:03:57;5.28;;;4.03;;
30948;SDS011;17637;51.984;21.208;2023-01-01T05:06:29;6.00;;;4.05;;
30948;SDS011;17637;51.984;21.208;2023-01-01T05:09:01;5.05;;;3.47;;
30948;SDS011;17637;51.984;21.208;2023-01-01T05:11:34;6.57;;;4.10;;
30948;SDS011;17637;51.984;21.208;2023-01-01T05:14:07;5.13;;;3.83;;
30948;SDS011;17637;51.984;21.208;2023-01-01T05:16:39;5.57;;;4.18;;
30948;SDS011;17637;51.984;21.208;2023-01-01T05:19:11;5.53;;;3.85;;
30948;SDS011;17637;51.984;21.208;2023-01-01T05:21:44;5.80;;;3.50;;
30948;SDS011;17637;51.984;21.208;2023-01-01T05:24:16;6.57;;;3.88;;
30948;SDS011;17637;51.984;21.208;2023-01-01T05:26:48;5.43;;;3.90;;
30948;SDS011;17637;51.984;21.208;2023-01-01T05:29:20;6.18;;;4.20;;
30948;SDS011;17637;51.984;21.208;2023-01-01T05:31:54;5.10;;;3.92;;
30948;SDS011;17637;51.984;21.208;2023-01-01T05:34:26;4.55;;;3.50;;
30948;SDS011;17637;51.984;21.208;2023-01-01T05:36:58;5.30;;;3.80;;
30948;SDS011;17637;51.984;21.208;2023-01-01T05:39:30;5.30;;;4.00;;
30948;SDS011;17637;51.984;21.208;2023-01-01T05:42:02;7.13;;;4.13;;
30948;SDS011;17637;51.984;21.208;2023-01-01T05:44:34;5.90;;;4.30;;
30948;SDS011;17637;51.984;21.208;2023-01-01T05:47:06;4.97;;;4.03;;
30948;SDS011;17637;51.984;21.208;2023-01-01T05:49:38;5.07;;;3.92;;
30948;SDS011;17637;51.984;21.208;2023-01-01T05:52:10;6.30;;;3.80;;
30948;SDS011;17637;51.984;21.208;2023-01-01T05:54:41;5.72;;;3.95;;
30948;SDS011;17637;51.984;21.208;2023-01-01T05:57:14;7.05;;;4.40;;
30948;SDS011;17637;51.984;21.208;2023-01-01T05:59:46;6.03;;;3.97;;
30948;SDS011;17637;51.984;21.208;2023-01-01T06:02:18;5.57;;;4.10;;
30948;SDS011;17637;51.984;21.208;2023-01-01T06:04:50;5.03;;;3.80;;
30948;SDS011;17637;51.984;21.208;2023-01-01T06:07:23;5.88;;;4.25;;
30948;SDS011;17637;51.984;21.208;2023-01-01T06:09:55;5.45;;;3.80;;
30948;SDS011;17637;51.984;21.208;2023-01-01T06:12:27;5.63;;;3.92;;
30948;SDS011;17637;51.984;21.208;2023-01-01T06:14:59;5.53;;;4.05;;
30948;SDS011;17637;51.984;21.208;2023-01-01T06:17:32;6.07;;;4.10;;
30948;SDS011;17637;51.984;21.208;2023-01-01T06:20:05;5.70;;;4.03;;
30948;SDS011;17637;51.984;21.208;2023-01-01T06:22:37;6.22;;;4.28;;
30948;SDS011;17637;51.984;21.208;2023-01-01T06:25:09;6.85;;;4.20;;
30948;SDS011;17637;51.984;21.208;2023-01-01T06:27:42;5.32;;;4.03;;
30948;SDS011;17637;51.984;21.208;2023-01-01T06:30:14;10.93;;;7.78;;
30948;SDS011;17637;51.984;21.208;2023-01-01T06:32:46;17.95;;;13.50;;
30948;SDS011;17637;51.984;21.208;2023-01-01T06:35:18;17.75;;;12.88;;
30948;SDS011;17637;51.984;21.208;2023-01-01T06:37:49;13.48;;;9.85;;
30948;SDS011;17637;51.984;21.208;2023-01-01T06:40:21;7.97;;;5.05;;
30948;SDS011;17637;51.984;21.208;2023-01-01T06:42:53;8.77;;;6.70;;
30948;SDS011;17637;51.984;21.208;2023-01-01T06:45:25;7.85;;;5.65;;
30948;SDS011;17637;51.984;21.208;2023-01-01T06:47:57;6.85;;;4.60;;
30948;SDS011;17637;51.984;21.208;2023-01-01T06:50:29;5.53;;;4.32;;
30948;SDS011;17637;51.984;21.208;2023-01-01T06:53:01;8.65;;;4.53;;
30948;SDS011;17637;51.984;21.208;2023-01-01T06:55:33;7.15;;;5.32;;
30948;SDS011;17637;51.984;21.208;2023-01-01T06:58:06;9.25;;;6.82;;
30948;SDS011;17637;51.984;21.208;2023-01-01T07:00:40;9.38;;;5.75;;
30948;SDS011;17637;51.984;21.208;2023-01-01T07:03:12;7.75;;;4.57;;
30948;SDS011;17637;51.984;21.208;2023-01-01T07:05:44;9.25;;;5.40;;
30948;SDS011;17637;51.984;21.208;2023-01-01T07:08:16;8.88;;;4.55;;
30948;SDS011;17637;51.984;21.208;2023-01-01T07:10:47;8.07;;;5.63;;
30948;SDS011;17637;51.984;21.208;2023-01-01T07:13:19;10.07;;;7.43;;
30948;SDS011;17637;51.984;21.208;2023-01-01T07:15:51;8.32;;;6.18;;
30948;SDS011;17637;51.984;21.208;2023-01-01T07:18:24;8.57;;;5.30;;
30948;SDS011;17637;51.984;21.208;2023-01-01T07:20:57;7.10;;;3.78;;
30948;SDS011;17637;51.984;21.208;2023-01-01T07:23:32;7.20;;;3.53;;
30948;SDS011;17637;51.984;21.208;2023-01-01T07:26:05;7.55;;;3.92;;
30948;SDS011;17637;51.984;21.208;2023-01-01T07:28:40;8.05;;;4.47;;
30948;SDS011;17637;51.984;21.208;2023-01-01T07:31:12;6.60;;;4.70;;
30948;SDS011;17637;51.984;21.208;2023-01-01T07:33:44;8.07;;;4.72;;
30948;SDS011;17637;51.984;21.208;2023-01-01T07:36:16;7.43;;;3.90;;
30948;SDS011;17637;51.984;21.208;2023-01-01T07:38:50;9.00;;;4.82;;
30948;SDS011;17637;51.984;21.208;2023-01-01T07:41:22;6.35;;;4.32;;
30948;SDS011;17637;51.984;21.208;2023-01-01T07:43:54;7.20;;;4.15;;
30948;SDS011;17637;51.984;21.208;2023-01-01T07:46:26;6.85;;;4.05;;
30948;SDS011;17637;51.984;21.208;2023-01-01T07:48:59;7.00;;;3.97;;
30948;SDS011;17637;51.984;21.208;2023-01-01T07:51:31;12.65;;;6.60;;
30948;SDS011;17637;51.984;21.208;2023-01-01T07:54:03;12.48;;;6.90;;
30948;SDS011;17637;51.984;21.208;2023-01-01T07:56:37;7.72;;;4.20;;
30948;SDS011;17637;51.984;21.208;2023-01-01T07:59:09;9.57;;;3.60;;
30948;SDS011;17637;51.984;21.208;2023-01-01T08:01:47;6.88;;;3.28;;
30948;SDS011;17637;51.984;21.208;2023-01-01T08:04:19;7.72;;;4.00;;
30948;SDS011;17637;51.984;21.208;2023-01-01T08:06:51;9.55;;;4.28;;
30948;SDS011;17637;51.984;21.208;2023-01-01T08:09:24;8.30;;;4.13;;
30948;SDS011;17637;51.984;21.208;2023-01-01T08:11:56;7.45;;;4.00;;
30948;SDS011;17637;51.984;21.208;2023-01-01T08:14:29;6.85;;;4.10;;
30948;SDS011;17637;51.984;21.208;2023-01-01T08:17:01;4.97;;;3.40;;
30948;SDS011;17637;51.984;21.208;2023-01-01T08:19:33;8.35;;;3.63;;
30948;SDS011;17637;51.984;21.208;2023-01-01T08:22:05;7.07;;;3.97;;
30948;SDS011;17637;51.984;21.208;2023-01-01T08:24:37;4.95;;;3.47;;
30948;SDS011;17637;51.984;21.208;2023-01-01T08:27:10;7.38;;;3.60;;
30948;SDS011;17637;51.984;21.208;2023-01-01T08:29:44;8.55;;;3.10;;
30948;SDS011;17637;51.984;21.208;2023-01-01T08:32:16;6.65;;;3.30;;
30948;SDS011;17637;51.984;21.208;2023-01-01T08:34:48;10.38;;;3.85;;
30948;SDS011;17637;51.984;21.208;2023-01-01T08:37:20;9.63;;;3.75;;
30948;SDS011;17637;51.984;21.208;2023-01-01T08:39:53;7.38;;;4.32;;
30948;SDS011;17637;51.984;21.208;2023-01-01T08:42:25;8.60;;;4.47;;
30948;SDS011;17637;51.984;21.208;2023-01-01T08:44:57;8.55;;;3.78;;
30948;SDS011;17637;51.984;21.208;2023-01-01T08:47:28;12.00;;;4.47;;
30948;SDS011;17637;51.984;21.208;2023-01-01T08:50:00;7.63;;;4.65;;
30948;SDS011;17637;51.984;21.208;2023-01-01T08:52:32;9.77;;;4.90;;
30948;SDS011;17637;51.984;21.208;2023-01-01T08:55:04;11.07;;;5.40;;
30948;SDS011;17637;51.984;21.208;2023-01-01T08:57:36;10.23;;;5.28;;
30948;SDS011;17637;51.984;21.208;2023-01-01T09:00:08;8.60;;;4.57;;
30948;SDS011;17637;51.984;21.208;2023-01-01T09:02:41;8.50;;;4.20;;
30948;SDS011;17637;51.984;21.208;2023-01-01T09:05:13;9.75;;;4.10;;
30948;SDS011;17637;51.984;21.208;2023-01-01T09:07:45;9.85;;;3.92;;
30948;SDS011;17637;51.984;21.208;2023-01-01T09:10:17;6.57;;;3.55;;
30948;SDS011;17637;51.984;21.208;2023-01-01T09:12:49;11.20;;;3.17;;
30948;SDS011;17637;51.984;21.208;2023-01-01T09:15:21;7.72;;;3.53;;
30948;SDS011;17637;51.984;21.208;2023-01-01T09:17:53;8.25;;;3.22;;
30948;SDS011;17637;51.984;21.208;2023-01-01T09:20:25;10.48;;;3.63;;
30948;SDS011;17637;51.984;21.208;2023-01-01T09:22:57;8.65;;;3.75;;
30948;SDS011;17637;51.984;21.208;2023-01-01T09:25:36;8.85;;;3.60;;
30948;SDS011;17637;51.984;21.208;2023-01-01T09:28:11;7.97;;;3.58;;
30948;SDS011;17637;51.984;21.208;2023-01-01T09:30:44;9.98;;;3.75;;
30948;SDS011;17637;51.984;21.208;2023-01-01T09:33:16;8.82;;;3.50;;
30948;SDS011;17637;51.984;21.208;2023-01-01T09:35:51;7.75;;;3.33;;
30948;SDS011;17637;51.984;21.208;2023-01-01T09:38:23;8.82;;;3.92;;
30948;SDS011;17637;51.984;21.208;2023-01-01T09:40:59;7.45;;;3.80;;
30948;SDS011;17637;51.984;21.208;2023-01-01T09:46:59;8.48;;;3.35;;
30948;SDS011;17637;51.984;21.208;2023-01-01T09:52:10;16.10;;;3.67;;
30948;SDS011;17637;51.984;21.208;2023-01-01T09:55:10;9.65;;;3.45;;
30948;SDS011;17637;51.984;21.208;2023-01-01T09:57:49;8.18;;;3.60;;
30948;SDS011;17637;51.984;21.208;2023-01-01T10:00:21;8.23;;;3.45;;
30948;SDS011;17637;51.984;21.208;2023-01-01T10:03:05;9.82;;;3.90;;
30948;SDS011;17637;51.984;21.208;2023-01-01T10:05:59;10.65;;;4.68;;
30948;SDS011;17637;51.984;21.208;2023-01-01T10:14:38;8.73;;;4.75;;
30948;SDS011;17637;51.984;21.208;2023-01-01T10:17:30;38.15;;;19.40;;
30948;SDS011;17637;51.984;21.208;2023-01-01T10:20:13;28.38;;;15.07;;
30948;SDS011;17637;51.984;21.208;2023-01-01T10:23:00;30.17;;;11.40;;
30948;SDS011;17637;51.984;21.208;2023-01-01T10:25:40;52.47;;;25.25;;
30948;SDS011;17637;51.984;21.208;2023-01-01T10:30:48;41.05;;;18.63;;
30948;SDS011;17637;51.984;21.208;2023-01-01T10:33:23;55.65;;;25.52;;
30948;SDS011;17637;51.984;21.208;2023-01-01T10:35:55;22.98;;;9.88;;
30948;SDS011;17637;51.984;21.208;2023-01-01T10:38:28;17.50;;;6.20;;
30948;SDS011;17637;51.984;21.208;2023-01-01T10:41:05;16.35;;;6.28;;
30948;SDS011;17637;51.984;21.208;2023-01-01T10:43:47;19.48;;;8.65;;
30948;SDS011;17637;51.984;21.208;2023-01-01T10:46:21;102.10;;;42.60;;
30948;SDS011;17637;51.984;21.208;2023-01-01T10:49:04;26.30;;;11.32;;
30948;SDS011;17637;51.984;21.208;2023-01-01T10:51:44;54.17;;;22.60;;
30948;SDS011;17637;51.984;21.208;2023-01-01T10:54:37;20.33;;;9.63;;
30948;SDS011;17637;51.984;21.208;2023-01-01T10:57:15;37.50;;;18.45;;
30948;SDS011;17637;51.984;21.208;2023-01-01T10:59:51;16.13;;;8.45;;
30948;SDS011;17637;51.984;21.208;2023-01-01T11:02:25;8.50;;;4.70;;
30948;SDS011;17637;51.984;21.208;2023-01-01T11:05:13;10.05;;;5.10;;
30948;SDS011;17637;51.984;21.208;2023-01-01T11:07:52;9.07;;;4.38;;
30948;SDS011;17637;51.984;21.208;2023-01-01T11:10:24;15.05;;;4.65;;
30948;SDS011;17637;51.984;21.208;2023-01-01T11:12:56;8.80;;;3.88;;
30948;SDS011;17637;51.984;21.208;2023-01-01T11:15:37;10.55;;;4.45;;
30948;SDS011;17637;51.984;21.208;2023-01-01T11:18:15;9.07;;;3.60;;
30948;SDS011;17637;51.984;21.208;2023-01-01T11:20:53;8.90;;;3.90;;
30948;SDS011;17637;51.984;21.208;2023-01-01T11:23:31;9.43;;;3.88;;
30948;SDS011;17637;51.984;21.208;2023-01-01T11:29:22;9.77;;;4.15;;
30948;SDS011;17637;51.984;21.208;2023-01-01T11:31:47;7.38;;;3.55;;
30948;SDS011;17637;51.984;21.208;2023-01-01T11:34:27;5.13;;;3.42;;
30948;SDS011;17637;51.984;21.208;2023-01-01T11:37:36;9.10;;;4.25;;
30948;SDS011;17637;51.984;21.208;2023-01-01T11:40:14;8.32;;;3.97;;
30948;SDS011;17637;51.984;21.208;2023-01-01T11:42:50;10.27;;;4.40;;
30948;SDS011;17637;51.984;21.208;2023-01-01T11:45:32;13.02;;;4.00;;
30948;SDS011;17637;51.984;21.208;2023-01-01T11:48:31;10.23;;;4.22;;
30948;SDS011;17637;51.984;21.208;2023-01-01T11:51:04;10.05;;;3.58;;
30948;SDS011;17637;51.984;21.208;2023-01-01T11:53:39;7.15;;;3.47;;
30948;SDS011;17637;51.984;21.208;2023-01-01T11:56:16;9.80;;;3.67;;
30948;SDS011;17637;51.984;21.208;2023-01-01T11:58:55;7.78;;;3.60;;
30948;SDS011;17637;51.984;21.208;2023-01-01T12:01:47;10.63;;;3.88;;
30948;SDS011;17637;51.984;21.208;2023-01-01T12:04:24;8.02;;;3.33;;
30948;SDS011;17637;51.984;21.208;2023-01-01T12:10:22;7.78;;;3.78;;
30948;SDS011;17637;51.984;21.208;2023-01-01T12:15:37;6.65;;;3.55;;
30948;SDS011;17637;51.984;21.208;2023-01-01T12:18:19;11.27;;;4.43;;
30948;SDS011;17637;51.984;21.208;2023-01-01T12:20:59;10.20;;;3.88;;
30948;SDS011;17637;51.984;21.208;2023-01-01T12:23:35;10.57;;;4.63;;
30948;SDS011;17637;51.984;21.208;2023-01-01T12:43:39;9.00;;;4.20;;
30948;SDS011;17637;51.984;21.208;2023-01-01T12:46:30;8.30;;;4.20;;
30948;SDS011;17637;51.984;21.208;2023-01-01T13:00:53;8.00;;;4.28;;
30948;SDS011;17637;51.984;21.208;2023-01-01T13:09:15;5.95;;;3.67;;
30948;SDS011;17637;51.984;21.208;2023-01-01T13:11:57;10.73;;;3.83;;
30948;SDS011;17637;51.984;21.208;2023-01-01T13:14:42;9.65;;;4.32;;
30948;SDS011;17637;51.984;21.208;2023-01-01T13:17:22;9.55;;;3.97;;
30948;SDS011;17637;51.984;21.208;2023-01-01T13:20:14;8.82;;;3.83;;
30948;SDS011;17637;51.984;21.208;2023-01-01T13:22:53;6.57;;;4.00;;
30948;SDS011;17637;51.984;21.208;2023-01-01T13:25:25;7.47;;;4.07;;
30948;SDS011;17637;51.984;21.208;2023-01-01T13:33:25;10.65;;;4.63;;
30948;SDS011;17637;51.984;21.208;2023-01-01T13:38:46;9.35;;;3.95;;
30948;SDS011;17637;51.984;21.208;2023-01-01T14:04:25;13.48;;;5.88;;
30948;SDS011;17637;51.984;21.208;2023-01-01T14:15:40;8.95;;;5.13;;
30948;SDS011;17637;51.984;21.208;2023-01-01T14:18:28;8.00;;;4.30;;
30948;SDS011;17637;51.984;21.208;2023-01-01T14:21:23;9.13;;;4.93;;
30948;SDS011;17637;51.984;21.208;2023-01-01T14:24:02;11.40;;;4.90;;
30948;SDS011;17637;51.984;21.208;2023-01-01T14:26:36;10.05;;;5.07;;
30948;SDS011;17637;51.984;21.208;2023-01-01T14:29:13;9.48;;;5.05;;
30948;SDS011;17637;51.984;21.208;2023-01-01T14:31:57;8.90;;;5.22;;
30948;SDS011;17637;51.984;21.208;2023-01-01T14:34:32;9.07;;;5.57;;
30948;SDS011;17637;51.984;21.208;2023-01-01T14:37:18;13.15;;;5.90;;
30948;SDS011;17637;51.984;21.208;2023-01-01T14:40:07;12.48;;;5.65;;
30948;SDS011;17637;51.984;21.208;2023-01-01T14:42:46;10.57;;;6.18;;
30948;SDS011;17637;51.984;21.208;2023-01-01T14:45:20;11.63;;;6.10;;
30948;SDS011;17637;51.984;21.208;2023-01-01T14:47:54;12.50;;;7.25;;
30948;SDS011;17637;51.984;21.208;2023-01-01T14:50:28;9.38;;;6.28;;
30948;SDS011;17637;51.984;21.208;2023-01-01T14:53:03;12.45;;;6.32;;
30948;SDS011;17637;51.984;21.208;2023-01-01T14:55:41;11.27;;;6.15;;
30948;SDS011;17637;51.984;21.208;2023-01-01T14:58:16;9.45;;;5.55;;
30948;SDS011;17637;51.984;21.208;2023-01-01T15:00:51;11.80;;;6.40;;
30948;SDS011;17637;51.984;21.208;2023-01-01T15:03:23;10.07;;;6.45;;
30948;SDS011;17637;51.984;21.208;2023-01-01T15:05:56;12.40;;;7.72;;
30948;SDS011;17637;51.984;21.208;2023-01-01T15:08:30;15.48;;;8.18;;
30948;SDS011;17637;51.984;21.208;2023-01-01T15:11:02;15.68;;;9.27;;
30948;SDS011;17637;51.984;21.208;2023-01-01T15:13:35;14.85;;;8.63;;
30948;SDS011;17637;51.984;21.208;2023-01-01T15:16:15;19.23;;;9.70;;
30948;SDS011;17637;51.984;21.208;2023-01-01T15:18:49;16.75;;;10.30;;
30948;SDS011;17637;51.984;21.208;2023-01-01T15:26:52;14.65;;;9.45;;
30948;SDS011;17637;51.984;21.208;2023-01-01T15:29:29;18.13;;;10.57;;
30948;SDS011;17637;51.984;21.208;2023-01-01T15:32:04;20.48;;;12.15;;
30948;SDS011;17637;51.984;21.208;2023-01-01T15:34:48;36.85;;;20.15;;
30948;SDS011;17637;51.984;21.208;2023-01-01T15:37:36;22.65;;;13.18;;
30948;SDS011;17637;51.984;21.208;2023-01-01T15:45:28;15.75;;;9.40;;
30948;SDS011;17637;51.984;21.208;2023-01-01T15:50:37;17.25;;;10.85;;
30948;SDS011;17637;51.984;21.208;2023-01-01T15:53:17;15.95;;;9.95;;
30948;SDS011;17637;51.984;21.208;2023-01-01T15:55:56;17.75;;;11.20;;
30948;SDS011;17637;51.984;21.208;2023-01-01T16:01:09;18.02;;;10.57;;
30948;SDS011;17637;51.984;21.208;2023-01-01T16:03:44;17.70;;;11.05;;
30948;SDS011;17637;51.984;21.208;2023-01-01T16:06:19;16.90;;;10.15;;
30948;SDS011;17637;51.984;21.208;2023-01-01T16:08:52;15.88;;;9.20;;
30948;SDS011;17637;51.984;21.208;2023-01-01T16:11:24;14.30;;;9.55;;
30948;SDS011;17637;51.984;21.208;2023-01-01T16:13:56;12.88;;;8.07;;
30948;SDS011;17637;51.984;21.208;2023-01-01T16:16:29;14.25;;;8.98;;
30948;SDS011;17637;51.984;21.208;2023-01-01T16:19:01;16.40;;;9.65;;
30948;SDS011;17637;51.984;21.208;2023-01-01T16:21:33;10.95;;;7.50;;
30948;SDS011;17637;51.984;21.208;2023-01-01T16:24:08;13.50;;;8.60;;
30948;SDS011;17637;51.984;21.208;2023-01-01T16:26:44;13.75;;;9.07;;
30948;SDS011;17637;51.984;21.208;2023-01-01T16:29:16;13.73;;;8.57;;
30948;SDS011;17637;51.984;21.208;2023-01-01T16:31:49;12.70;;;8.43;;
30948;SDS011;17637;51.984;21.208;2023-01-01T16:34:21;14.18;;;8.98;;
30948;SDS011;17637;51.984;21.208;2023-01-01T16:36:54;14.27;;;7.97;;
30948;SDS011;17637;51.984;21.208;2023-01-01T16:39:26;14.68;;;7.78;;
30948;SDS011;17637;51.984;21.208;2023-01-01T16:41:58;15.38;;;8.52;;
30948;SDS011;17637;51.984;21.208;2023-01-01T16:44:30;12.43;;;8.23;;
30948;SDS011;17637;51.984;21.208;2023-01-01T16:47:02;12.27;;;7.97;;
30948;SDS011;17637;51.984;21.208;2023-01-01T16:49:34;12.73;;;8.88;;
30948;SDS011;17637;51.984;21.208;2023-01-01T16:52:06;13.18;;;8.02;;
30948;SDS011;17637;51.984;21.208;2023-01-01T16:54:39;14.00;;;8.32;;
30948;SDS011;17637;51.984;21.208;2023-01-01T16:57:11;11.77;;;7.68;;
30948;SDS011;17637;51.984;21.208;2023-01-01T16:59:43;11.05;;;6.95;;
30948;SDS011;17637;51.984;21.208;2023-01-01T17:02:14;8.98;;;6.70;;
30948;SDS011;17637;51.984;21.208;2023-01-01T17:04:47;10.82;;;7.32;;
30948;SDS011;17637;51.984;21.208;2023-01-01T17:07:18;12.60;;;8.82;;
30948;SDS011;17637;51.984;21.208;2023-01-01T17:09:50;11.65;;;7.72;;
30948;SDS011;17637;51.984;21.208;2023-01-01T17:12:22;11.20;;;7.40;;
30948;SDS011;17637;51.984;21.208;2023-01-01T17:14:54;14.10;;;7.53;;
30948;SDS011;17637;51.984;21.208;2023-01-01T17:17:26;15.30;;;7.47;;
30948;SDS011;17637;51.984;21.208;2023-01-01T17:19:58;11.18;;;7.43;;
30948;SDS011;17637;51.984;21.208;2023-01-01T17:22:30;11.40;;;7.10;;
30948;SDS011;17637;51.984;21.208;2023-01-01T17:25:04;14.20;;;8.52;;
30948;SDS011;17637;51.984;21.208;2023-01-01T17:27:37;13.05;;;7.28;;
30948;SDS011;17637;51.984;21.208;2023-01-01T17:30:09;10.85;;;6.95;;
30948;SDS011;17637;51.984;21.208;2023-01-01T17:32:42;14.73;;;9.00;;
30948;SDS011;17637;51.984;21.208;2023-01-01T17:35:14;17.05;;;9.52;;
30948;SDS011;17637;51.984;21.208;2023-01-01T17:37:46;13.68;;;9.68;;
30948;SDS011;17637;51.984;21.208;2023-01-01T17:40:17;14.68;;;10.55;;
30948;SDS011;17637;51.984;21.208;2023-01-01T17:42:49;10.98;;;7.57;;
30948;SDS011;17637;51.984;21.208;2023-01-01T17:45:21;12.82;;;6.85;;
30948;SDS011;17637;51.984;21.208;2023-01-01T17:47:53;9.90;;;6.90;;
30948;SDS011;17637;51.984;21.208;2023-01-01T17:50:25;10.23;;;7.10;;
30948;SDS011;17637;51.984;21.208;2023-01-01T17:52:58;14.30;;;8.43;;
30948;SDS011;17637;51.984;21.208;2023-01-01T17:55:30;12.65;;;8.38;;
30948;SDS011;17637;51.984;21.208;2023-01-01T17:58:02;13.75;;;7.90;;
30948;SDS011;17637;51.984;21.208;2023-01-01T18:00:34;12.77;;;7.72;;